Time;durP1;ratioP1;P1;durP2;ratioP2;P2;SDS_P1;SDS_P2;PMS_P1;PMS_P2;Temp;Humidity;BMP_temperature;BMP_pressure;BME280_temperature;BME280_humidity;BME280_pressure;Samples;Min_cycle;Max_cycle;Signal;HPM_P1;HPM_P2
2021/08/31 00:00:00;;;;;;;17.00;12.43;;;17.10;99.90;;;;;;5073399;28;20253;-79
2021/08/31 00:02:26;;;;;;;17.50;12.53;;;17.00;99.90;;;;;;5072880;28;20180;-79
2021/08/31 00:04:51;;;;;;;19.87;13.63;;;17.10;99.90;;;;;;5073166;28;20621;-79
2021/08/31 00:07:17;;;;;;;19.13;12.77;;;17.10;99.90;;;;;;5073323;28;20221;-79
2021/08/31 00:09:43;;;;;;;22.10;13.87;;;17.10;99.90;;;;;;5055026;28;20172;-80
2021/08/31 00:12:09;;;;;;;21.13;13.83;;;17.10;99.90;;;;;;5055244;28;20183;-80
2021/08/31 00:14:36;;;;;;;21.17;13.80;;;17.00;99.90;;;;;;5073190;28;20264;-80
2021/08/31 00:17:03;;;;;;;19.17;13.23;;;17.10;99.90;;;;;;5072720;28;20208;-80
2021/08/31 00:19:28;;;;;;;21.30;14.77;;;17.10;99.90;;;;;;5072805;28;20174;-80
2021/08/31 00:21:54;;;;;;;19.67;13.43;;;17.10;99.90;;;;;;5055285;28;20652;-80
2021/08/31 00:24:22;;;;;;;19.87;13.23;;;17.10;99.90;;;;;;5073052;28;20177;-79
2021/08/31 00:26:48;;;;;;;17.20;13.40;;;17.10;99.90;;;;;;5072988;28;20203;-79
2021/08/31 00:29:14;;;;;;;23.37;14.83;;;17.20;99.90;;;;;;5072857;28;20177;-80
2021/08/31 00:31:40;;;;;;;20.57;13.47;;;17.00;99.90;;;;;;5072771;28;20175;-79
2021/08/31 00:34:05;;;;;;;20.57;12.47;;;17.00;99.90;;;;;;5075753;28;20237;-79
2021/08/31 00:36:31;;;;;;;17.80;13.53;;;17.00;99.90;;;;;;5077007;28;20207;-78
2021/08/31 00:38:57;;;;;;;19.10;13.07;;;17.00;99.90;;;;;;5059043;28;20602;-79
2021/08/31 00:41:24;;;;;;;23.77;14.70;;;17.00;99.90;;;;;;5076999;28;20258;-79
2021/08/31 00:43:51;;;;;;;23.47;12.97;;;17.00;99.90;;;;;;5076744;28;20181;-80
2021/08/31 00:46:19;;;;;;;18.90;14.07;;;17.00;99.90;;;;;;5076726;28;20574;-79
2021/08/31 00:48:46;;;;;;;19.83;14.73;;;16.90;99.90;;;;;;5076679;28;20218;-79
2021/08/31 00:51:13;;;;;;;17.00;13.80;;;17.00;99.90;;;;;;5076827;28;20542;-79
2021/08/31 00:53:40;;;;;;;19.00;13.27;;;16.90;99.90;;;;;;5076510;28;20164;-80
2021/08/31 00:56:11;;;;;;;20.23;14.50;;;17.00;99.90;;;;;;5076690;28;20528;-79
2021/08/31 00:58:38;;;;;;;18.07;13.73;;;17.00;99.90;;;;;;5076979;28;20196;-79
2021/08/31 01:01:03;;;;;;;16.27;13.13;;;16.90;99.90;;;;;;5076459;28;20169;-79
2021/08/31 01:03:29;;;;;;;20.70;13.47;;;16.90;99.90;;;;;;5076881;28;20628;-79
2021/08/31 01:06:00;;;;;;;19.27;13.90;;;17.00;99.90;;;;;;5058259;28;20590;-79
2021/08/31 01:08:27;;;;;;;19.53;14.90;;;16.90;99.90;;;;;;5076525;28;20168;-77
2021/08/31 01:10:53;;;;;;;21.77;15.07;;;16.90;99.90;;;;;;5076361;28;20187;-78
2021/08/31 01:13:20;;;;;;;18.07;13.83;;;16.90;99.90;;;;;;5076421;28;20636;-80
2021/08/31 01:15:47;;;;;;;19.07;14.33;;;16.80;99.90;;;;;;5075805;28;20208;-77
2021/08/31 01:18:20;;;;;;;21.43;16.37;;;16.80;99.90;;;;;;5076309;28;20168;-79
2021/08/31 01:20:53;;;;;;;19.60;15.57;;;16.80;99.90;;;;;;5076144;28;20172;-79
2021/08/31 01:23:20;;;;;;;19.40;14.53;;;16.80;99.90;;;;;;5076464;28;20990;-77
2021/08/31 01:25:47;;;;;;;22.70;14.50;;;16.80;99.90;;;;;;5075862;28;20177;-77
2021/08/31 01:28:21;;;;;;;18.50;14.17;;;16.80;99.90;;;;;;5076072;28;20161;-80
2021/08/31 01:30:49;;;;;;;21.37;15.27;;;16.80;99.90;;;;;;5076366;28;20609;-79
2021/08/31 01:33:15;;;;;;;19.83;15.07;;;16.70;99.90;;;;;;5096007;28;20200;-78
2021/08/31 01:35:41;;;;;;;21.47;15.20;;;16.70;99.90;;;;;;5095204;28;20261;-79
2021/08/31 01:38:07;;;;;;;18.37;16.37;;;16.70;99.90;;;;;;5076444;28;20180;-77
2021/08/31 01:40:33;;;;;;;23.07;16.53;;;16.80;99.90;;;;;;5076223;28;20164;-78
2021/08/31 01:43:00;;;;;;;23.53;15.93;;;16.70;99.90;;;;;;5075718;28;20522;-79
2021/08/31 01:45:27;;;;;;;22.53;16.33;;;16.80;99.90;;;;;;5075543;28;20195;-77
2021/08/31 01:47:54;;;;;;;20.97;16.67;;;16.70;99.90;;;;;;5076068;28;20168;-78
2021/08/31 01:50:20;;;;;;;21.23;17.00;;;16.70;99.90;;;;;;5076474;28;20171;-78
2021/08/31 01:52:45;;;;;;;21.93;16.67;;;16.60;99.90;;;;;;5075866;28;20188;-77
2021/08/31 01:55:11;;;;;;;22.20;17.33;;;16.70;99.90;;;;;;5075623;28;20549;-78
2021/08/31 01:57:37;;;;;;;23.60;17.17;;;16.70;99.90;;;;;;5088964;28;20175;-76
2021/08/31 02:00:04;;;;;;;22.97;18.17;;;16.80;99.90;;;;;;5100037;28;20197;-77
2021/08/31 02:02:29;;;;;;;24.63;18.47;;;16.60;99.90;;;;;;5079611;28;20219;-78
2021/08/31 02:04:55;;;;;;;24.57;17.50;;;16.60;99.90;;;;;;5075753;28;20643;-78
2021/08/31 02:07:21;;;;;;;24.30;18.33;;;16.50;99.90;;;;;;5075844;28;20247;-78
2021/08/31 02:09:46;;;;;;;25.97;19.07;;;16.50;99.90;;;;;;5075704;28;20175;-78
2021/08/31 02:12:12;;;;;;;26.43;18.93;;;16.50;99.90;;;;;;5075332;28;20240;-78
2021/08/31 02:14:38;;;;;;;23.47;19.30;;;16.50;99.90;;;;;;5075321;28;20313;-79
2021/08/31 02:17:04;;;;;;;26.43;19.87;;;16.40;99.90;;;;;;5074852;28;20208;-78
2021/08/31 02:19:29;;;;;;;24.03;21.07;;;16.40;99.90;;;;;;5075289;28;20171;-79
2021/08/31 02:21:55;;;;;;;31.23;21.00;;;16.40;99.90;;;;;;5075062;28;20179;-78
2021/08/31 02:24:21;;;;;;;26.13;21.43;;;16.40;99.90;;;;;;5074959;28;20183;-79
2021/08/31 02:26:48;;;;;;;27.20;21.47;;;16.30;99.90;;;;;;5074418;28;20643;-79
2021/08/31 02:29:14;;;;;;;28.13;22.93;;;16.20;99.90;;;;;;5075426;28;20261;-79
2021/08/31 02:31:39;;;;;;;27.77;23.20;;;16.40;99.90;;;;;;5075034;28;20202;-78
2021/08/31 02:34:05;;;;;;;31.37;23.37;;;16.30;99.90;;;;;;5074895;28;20500;-78
2021/08/31 02:36:31;;;;;;;26.73;21.57;;;16.30;99.90;;;;;;5056819;28;20208;-79
2021/08/31 02:38:56;;;;;;;29.43;23.17;;;16.40;99.90;;;;;;5074855;28;20263;-79
2021/08/31 02:41:22;;;;;;;32.43;25.00;;;16.20;99.90;;;;;;5074456;28;20198;-79
2021/08/31 02:43:47;;;;;;;35.77;24.57;;;16.20;99.90;;;;;;5074815;28;20184;-79
2021/08/31 02:46:13;;;;;;;29.40;23.40;;;16.20;99.90;;;;;;5074450;28;20691;-79
2021/08/31 02:48:40;;;;;;;27.47;22.87;;;16.20;99.90;;;;;;5074474;28;20206;-78
2021/08/31 02:51:06;;;;;;;30.93;25.00;;;16.30;99.90;;;;;;5074376;28;20183;-79
2021/08/31 02:53:32;;;;;;;32.17;24.17;;;16.10;99.90;;;;;;5074261;28;20647;-79
2021/08/31 02:55:58;;;;;;;31.50;24.63;;;16.10;99.90;;;;;;5073265;28;20199;-79
2021/08/31 02:58:23;;;;;;;33.60;25.07;;;16.10;99.90;;;;;;5074173;28;20524;-79
2021/08/31 03:01:03;;;;;;;34.63;24.80;;;16.00;99.90;;;;;;5074365;28;20171;-79
2021/08/31 03:03:29;;;;;;;37.00;27.80;;;16.10;99.90;;;;;;5074140;28;20163;-79
2021/08/31 03:05:55;;;;;;;35.80;26.13;;;16.00;99.90;;;;;;5074483;28;20170;-79
2021/08/31 03:08:20;;;;;;;33.63;27.50;;;16.00;99.90;;;;;;5074088;28;20199;-79
2021/08/31 03:10:46;;;;;;;33.57;27.13;;;16.00;99.90;;;;;;5073981;28;20214;-79
2021/08/31 03:13:12;;;;;;;37.90;28.47;;;16.00;99.90;;;;;;5073924;28;20313;-79
2021/08/31 03:15:37;;;;;;;37.33;30.03;;;16.10;99.90;;;;;;5073848;28;20286;-79
2021/08/31 03:18:03;;;;;;;39.07;28.37;;;16.00;99.90;;;;;;5073807;28;20647;-79
2021/08/31 03:20:28;;;;;;;40.20;29.60;;;16.00;99.90;;;;;;5073961;28;20206;-79
2021/08/31 03:22:54;;;;;;;36.17;29.00;;;16.00;99.90;;;;;;5073847;28;20597;-79
2021/08/31 03:25:20;;;;;;;32.00;27.60;;;16.00;99.90;;;;;;5073373;28;20184;-79
2021/08/31 03:27:45;;;;;;;33.10;27.73;;;16.00;99.90;;;;;;5073601;28;20750;-79
2021/08/31 03:30:12;;;;;;;36.27;28.47;;;15.90;99.90;;;;;;5073807;28;20165;-80
2021/08/31 03:32:39;;;;;;;31.60;27.47;;;15.90;99.90;;;;;;5073654;28;20167;-79
2021/08/31 03:35:04;;;;;;;31.13;26.87;;;16.00;99.90;;;;;;5073540;28;20320;-79
2021/08/31 03:37:30;;;;;;;29.00;25.03;;;15.90;99.90;;;;;;5072580;28;20683;-79
2021/08/31 03:39:56;;;;;;;29.67;25.47;;;16.00;99.90;;;;;;5058040;28;20189;-78
2021/08/31 03:42:21;;;;;;;32.73;26.70;;;15.90;99.90;;;;;;5068663;28;20179;-78
2021/08/31 03:44:47;;;;;;;33.13;26.17;;;15.90;99.90;;;;;;5068372;28;20185;-80
2021/08/31 03:47:12;;;;;;;30.67;24.40;;;16.00;99.90;;;;;;5060761;28;20547;-79
2021/08/31 03:49:38;;;;;;;29.90;25.03;;;16.00;99.90;;;;;;5057672;28;20203;-78
2021/08/31 03:52:04;;;;;;;30.17;25.90;;;16.00;99.90;;;;;;5061745;28;20192;-79
2021/08/31 03:54:33;;;;;;;28.67;22.90;;;16.10;99.90;;;;;;5055744;28;20754;-79
2021/08/31 03:56:59;;;;;;;28.57;24.93;;;16.00;99.90;;;;;;5055903;28;20197;-79
2021/08/31 03:59:25;;;;;;;29.30;24.60;;;16.10;99.90;;;;;;5054614;28;20171;-79
2021/08/31 04:01:50;;;;;;;32.60;25.03;;;16.10;99.90;;;;;;5054728;28;20175;-79
2021/08/31 04:04:16;;;;;;;30.90;25.77;;;16.00;99.90;;;;;;5054623;28;20172;-79
2021/08/31 04:06:42;;;;;;;28.87;25.23;;;16.00;99.90;;;;;;5054884;28;20173;-79
2021/08/31 04:09:07;;;;;;;32.17;26.17;;;16.20;99.90;;;;;;5053215;28;20172;-79
2021/08/31 04:11:33;;;;;;;28.37;23.97;;;16.20;99.90;;;;;;5053783;28;20165;-79
2021/08/31 04:13:59;;;;;;;28.43;24.27;;;16.10;99.90;;;;;;5053885;28;20164;-79
2021/08/31 04:16:24;;;;;;;29.93;24.00;;;16.20;99.90;;;;;;5055158;28;20660;-78
2021/08/31 04:18:50;;;;;;;30.07;24.57;;;16.10;99.90;;;;;;5057254;28;20621;-78
2021/08/31 04:21:15;;;;;;;32.13;24.47;;;16.30;99.90;;;;;;5053680;28;20180;-79
2021/08/31 04:23:41;;;;;;;31.43;25.97;;;16.10;99.90;;;;;;5052671;28;20230;-80
2021/08/31 04:26:07;;;;;;;30.83;25.97;;;16.20;99.90;;;;;;5052817;28;20200;-79
2021/08/31 04:28:32;;;;;;;29.27;25.17;;;16.20;99.90;;;;;;5052714;28;20180;-79
2021/08/31 04:30:58;;;;;;;25.90;23.10;;;16.20;99.90;;;;;;5052900;28;20169;-79
2021/08/31 04:33:25;;;;;;;27.63;24.07;;;16.20;99.90;;;;;;5035071;28;20177;-79
2021/08/31 04:35:50;;;;;;;27.70;22.53;;;16.20;99.90;;;;;;5052845;28;20629;-79
2021/08/31 04:38:16;;;;;;;35.10;27.77;;;16.20;99.90;;;;;;5052393;28;20172;-79
2021/08/31 04:40:42;;;;;;;31.37;25.20;;;16.40;99.90;;;;;;5052717;28;20173;-79
2021/08/31 04:43:08;;;;;;;27.83;24.07;;;16.40;99.90;;;;;;5052795;28;20544;-79
2021/08/31 04:45:33;;;;;;;33.83;26.70;;;16.30;99.90;;;;;;5034475;28;20193;-79
2021/08/31 04:47:59;;;;;;;27.57;24.20;;;16.30;99.90;;;;;;5052824;28;20702;-79
2021/08/31 04:50:24;;;;;;;31.90;25.13;;;16.30;99.90;;;;;;5052644;28;20180;-79
2021/08/31 04:52:50;;;;;;;32.03;26.60;;;16.30;99.90;;;;;;5052481;28;20656;-79
2021/08/31 04:55:17;;;;;;;30.47;25.43;;;16.40;99.90;;;;;;5052355;28;20704;-79
2021/08/31 04:57:43;;;;;;;29.13;25.97;;;16.30;99.90;;;;;;5052455;28;20180;-79
2021/08/31 05:00:09;;;;;;;28.83;24.43;;;16.30;99.90;;;;;;5052668;28;20169;-78
2021/08/31 05:02:36;;;;;;;30.30;24.20;;;16.30;99.90;;;;;;5052721;28;20645;-78
2021/08/31 05:05:02;;;;;;;30.47;26.57;;;16.30;99.90;;;;;;5052583;28;20169;-78
2021/08/31 05:07:28;;;;;;;35.03;26.53;;;16.30;99.90;;;;;;5052736;28;20660;-79
2021/08/31 05:09:53;;;;;;;31.37;27.33;;;16.30;99.90;;;;;;5073458;28;20169;-78
2021/08/31 05:12:19;;;;;;;29.60;25.40;;;16.20;99.90;;;;;;5070988;28;20630;-80
2021/08/31 05:14:44;;;;;;;30.60;25.70;;;16.20;99.90;;;;;;5057052;28;20177;-80
2021/08/31 05:17:10;;;;;;;28.47;25.37;;;16.30;99.90;;;;;;5054928;28;20693;-80
2021/08/31 05:19:40;;;;;;;28.70;24.40;;;16.30;99.90;;;;;;5054506;28;20298;-79
2021/08/31 05:22:06;;;;;;;27.97;24.37;;;16.40;99.90;;;;;;5056043;28;20189;-79
2021/08/31 05:24:32;;;;;;;28.83;24.77;;;16.30;99.90;;;;;;5056372;28;20169;-79
2021/08/31 05:26:58;;;;;;;29.87;26.03;;;16.40;99.90;;;;;;5056933;28;20177;-79
2021/08/31 05:29:24;;;;;;;30.30;25.80;;;16.40;99.90;;;;;;5038865;28;20538;-81
2021/08/31 05:31:50;;;;;;;29.30;24.97;;;16.40;99.90;;;;;;5056062;28;20176;-79
2021/08/31 05:34:16;;;;;;;26.97;24.10;;;16.50;99.90;;;;;;5076298;28;20181;-77
2021/08/31 05:36:42;;;;;;;28.23;23.67;;;16.50;99.90;;;;;;5080053;28;20229;-78
2021/08/31 05:39:08;;;;;;;29.13;24.83;;;16.40;99.90;;;;;;5064169;28;20697;-79
2021/08/31 05:41:34;;;;;;;29.63;26.40;;;16.40;99.90;;;;;;5056924;28;20176;-79
2021/08/31 05:44:06;;;;;;;30.90;25.23;;;16.40;99.90;;;;;;5056025;28;20184;-78
2021/08/31 05:46:32;;;;;;;30.23;25.47;;;16.30;99.90;;;;;;5055867;28;20165;-78
2021/08/31 05:48:58;;;;;;;30.17;25.10;;;16.50;99.90;;;;;;5055395;28;20251;-78
2021/08/31 05:51:24;;;;;;;28.57;25.47;;;16.40;99.90;;;;;;5055436;28;20279;-77
2021/08/31 05:53:49;;;;;;;28.03;24.80;;;16.40;99.90;;;;;;5055518;28;20168;-78
2021/08/31 05:56:15;;;;;;;27.80;24.80;;;16.50;99.90;;;;;;5055435;28;20647;-81
2021/08/31 05:58:40;;;;;;;28.87;25.40;;;16.40;99.90;;;;;;5055448;28;20169;-77
2021/08/31 06:01:07;;;;;;;29.03;24.20;;;16.30;99.90;;;;;;5055554;28;20180;-77
2021/08/31 06:03:33;;;;;;;30.57;26.70;;;16.30;99.90;;;;;;5055798;28;20236;-77
2021/08/31 06:05:58;;;;;;;29.60;25.73;;;16.30;99.90;;;;;;5037589;28;20672;-77
2021/08/31 06:08:24;;;;;;;28.60;24.27;;;16.40;99.90;;;;;;5055534;28;20173;-80
2021/08/31 06:10:50;;;;;;;27.77;24.60;;;16.40;99.90;;;;;;5055279;28;20212;-77
2021/08/31 06:13:15;;;;;;;27.00;24.10;;;16.40;99.90;;;;;;5055274;28;20626;-77
2021/08/31 06:15:41;;;;;;;27.47;24.50;;;16.40;99.90;;;;;;5054856;28;20211;-78
2021/08/31 06:18:07;;;;;;;28.37;25.27;;;16.50;99.90;;;;;;5056739;28;20172;-78
2021/08/31 06:20:32;;;;;;;27.00;24.03;;;16.50;99.90;;;;;;5062746;28;20657;-78
2021/08/31 06:22:58;;;;;;;28.57;23.57;;;16.50;99.90;;;;;;5056101;28;20217;-79
2021/08/31 06:25:24;;;;;;;27.47;24.50;;;16.60;99.90;;;;;;5056239;28;20183;-79
2021/08/31 06:27:49;;;;;;;30.40;23.83;;;16.50;99.90;;;;;;5074169;28;20176;-79
2021/08/31 06:30:15;;;;;;;27.30;23.30;;;16.50;99.90;;;;;;5074009;28;20621;-80
2021/08/31 06:32:40;;;;;;;29.50;23.50;;;16.60;99.90;;;;;;5071688;28;20195;-79
2021/08/31 06:35:06;;;;;;;26.17;23.50;;;16.60;99.90;;;;;;5055633;28;20707;-79
2021/08/31 06:37:32;;;;;;;29.63;22.93;;;16.60;99.90;;;;;;5074589;28;20646;-76
2021/08/31 06:39:58;;;;;;;29.60;24.27;;;16.80;99.90;;;;;;5073980;28;20220;-77
2021/08/31 06:42:23;;;;;;;28.57;22.97;;;16.70;99.90;;;;;;5073882;28;20179;-78
2021/08/31 06:44:49;;;;;;;26.73;23.20;;;16.70;99.90;;;;;;5073816;28;20188;-76
2021/08/31 06:47:16;;;;;;;26.00;22.40;;;16.60;99.90;;;;;;5073705;28;20184;-78
2021/08/31 06:49:41;;;;;;;27.17;22.63;;;16.50;99.90;;;;;;5073504;28;20665;-76
2021/08/31 06:52:07;;;;;;;25.93;23.13;;;16.50;99.90;;;;;;5055734;28;20188;-77
2021/08/31 06:54:33;;;;;;;25.10;22.43;;;16.60;99.90;;;;;;5073592;28;20650;-77
2021/08/31 06:56:59;;;;;;;26.97;23.07;;;16.60;99.90;;;;;;5073645;28;20196;-78
2021/08/31 06:59:24;;;;;;;25.43;22.70;;;16.70;99.90;;;;;;5074307;28;20483;-79
2021/08/31 07:01:50;;;;;;;30.70;22.13;;;16.80;99.90;;;;;;5073608;28;20671;-77
2021/08/31 07:04:15;;;;;;;25.43;20.90;;;16.80;99.90;;;;;;5073624;28;20186;-76
2021/08/31 07:06:41;;;;;;;23.20;20.73;;;16.80;99.90;;;;;;5073632;28;20180;-77
2021/08/31 07:09:07;;;;;;;24.13;20.87;;;16.70;99.90;;;;;;5073844;28;20221;-78
2021/08/31 07:11:32;;;;;;;23.43;21.03;;;16.50;99.90;;;;;;5074230;28;20214;-77
2021/08/31 07:13:58;;;;;;;28.67;22.27;;;16.50;99.90;;;;;;5073886;28;20504;-77
2021/08/31 07:16:24;;;;;;;23.13;20.63;;;16.60;99.90;;;;;;5055535;28;20218;-78
2021/08/31 07:18:49;;;;;;;22.70;20.20;;;16.60;99.90;;;;;;5072532;28;20180;-78
2021/08/31 07:21:15;;;;;;;24.80;20.30;;;16.60;99.90;;;;;;5073104;28;20204;-77
2021/08/31 07:23:41;;;;;;;25.20;20.07;;;16.70;99.90;;;;;;5054850;28;20722;-79
2021/08/31 07:26:06;;;;;;;21.83;19.63;;;16.70;99.90;;;;;;5073202;28;20180;-78
2021/08/31 07:28:32;;;;;;;21.93;19.60;;;16.70;99.90;;;;;;5073377;28;20168;-78
2021/08/31 07:30:58;;;;;;;24.93;20.60;;;16.80;99.90;;;;;;5072919;28;20636;-79
2021/08/31 07:33:23;;;;;;;23.77;19.67;;;16.80;99.90;;;;;;5073144;28;20172;-77
2021/08/31 07:35:49;;;;;;;26.80;20.13;;;16.90;99.90;;;;;;5074481;28;20212;-78
2021/08/31 07:38:15;;;;;;;21.30;18.17;;;16.90;99.90;;;;;;5074298;28;20961;-77
2021/08/31 07:40:41;;;;;;;19.77;17.77;;;16.80;99.90;;;;;;5073529;28;20569;-78
2021/08/31 07:43:07;;;;;;;20.97;18.77;;;16.70;99.90;;;;;;5074123;28;20168;-79
2021/08/31 07:45:33;;;;;;;19.73;17.67;;;16.70;99.90;;;;;;5073758;28;20192;-79
2021/08/31 07:48:00;;;;;;;22.40;18.60;;;16.80;99.90;;;;;;5073547;28;20176;-79
2021/08/31 07:50:26;;;;;;;20.63;18.50;;;16.90;99.90;;;;;;5074333;28;20172;-78
2021/08/31 07:52:52;;;;;;;20.43;18.03;;;17.00;99.90;;;;;;5057246;28;20191;-77
2021/08/31 07:55:20;;;;;;;21.43;18.20;;;17.00;99.90;;;;;;5074051;28;20178;-77
2021/08/31 07:57:47;;;;;;;20.53;17.23;;;17.00;99.90;;;;;;5072820;28;20223;-79
2021/08/31 08:00:15;;;;;;;21.13;17.57;;;17.20;99.90;;;;;;5072636;28;20204;-77
2021/08/31 08:02:42;;;;;;;23.40;18.23;;;17.20;99.90;;;;;;5074090;28;20614;-78
2021/08/31 08:05:08;;;;;;;23.00;18.67;;;17.30;99.90;;;;;;5072778;28;20181;-77
2021/08/31 08:07:33;;;;;;;22.37;19.20;;;17.30;99.90;;;;;;5073442;28;20181;-77
2021/08/31 08:09:59;;;;;;;22.53;18.57;;;17.30;99.90;;;;;;5054316;28;20217;-78
2021/08/31 08:12:25;;;;;;;23.47;19.70;;;17.30;99.90;;;;;;5074140;28;20173;-77
2021/08/31 08:14:51;;;;;;;24.20;19.00;;;17.40;99.90;;;;;;5073600;28;20175;-78
2021/08/31 08:17:21;;;;;;;21.63;18.60;;;17.40;99.90;;;;;;5074216;28;20627;-77
2021/08/31 08:19:48;;;;;;;24.10;18.30;;;17.50;99.90;;;;;;5072706;28;20725;-78
2021/08/31 08:22:15;;;;;;;19.17;17.10;;;17.60;99.90;;;;;;5071611;28;20172;-77
2021/08/31 08:24:40;;;;;;;22.20;18.20;;;17.60;99.90;;;;;;5081974;28;20213;-77
2021/08/31 08:27:07;;;;;;;20.07;17.87;;;17.50;99.90;;;;;;5095885;28;20179;-78
2021/08/31 08:29:37;;;;;;;22.67;17.17;;;17.60;99.90;;;;;;5095543;28;20176;-78
2021/08/31 08:32:08;;;;;;;22.27;18.33;;;17.60;99.90;;;;;;5076678;28;20169;-79
2021/08/31 08:34:34;;;;;;;22.00;17.10;;;17.70;99.90;;;;;;5074247;28;20165;-78
2021/08/31 08:37:07;;;;;;;24.47;17.63;;;17.80;99.90;;;;;;5074003;28;20562;-79
2021/08/31 08:39:33;;;;;;;21.67;17.00;;;17.80;99.90;;;;;;5073367;28;20243;-79
2021/08/31 08:42:04;;;;;;;20.63;17.50;;;17.90;99.90;;;;;;5083690;28;20224;-77
2021/08/31 08:44:30;;;;;;;19.90;16.07;;;18.10;99.90;;;;;;5074354;28;20188;-78
2021/08/31 08:46:56;;;;;;;20.23;16.47;;;18.20;99.90;;;;;;5088087;28;20187;-79
2021/08/31 08:49:22;;;;;;;18.40;15.50;;;18.10;99.10;;;;;;5087692;28;20178;-79
2021/08/31 08:51:48;;;;;;;20.13;16.37;;;17.90;99.90;;;;;;5074805;28;20198;-80
2021/08/31 08:54:13;;;;;;;23.57;16.60;;;17.70;99.90;;;;;;5074730;28;20622;-80
2021/08/31 08:56:39;;;;;;;17.73;15.33;;;17.60;99.90;;;;;;5059531;28;20199;-79
2021/08/31 08:59:05;;;;;;;18.67;15.13;;;17.60;99.90;;;;;;5091571;28;20218;-79
2021/08/31 09:01:52;;;;;;;19.43;15.57;;;17.50;99.90;;;;;;5098891;28;20196;-78
2021/08/31 09:04:21;;;;;;;20.73;16.00;;;17.40;99.90;;;;;;5092429;28;20173;-76
2021/08/31 09:06:47;;;;;;;24.20;16.40;;;17.50;99.90;;;;;;5069727;28;20237;-78
2021/08/31 09:09:14;;;;;;;23.10;16.87;;;17.60;99.90;;;;;;5081072;28;20172;-79
2021/08/31 09:11:42;;;;;;;19.63;15.67;;;17.70;99.90;;;;;;5064042;28;20587;-77
2021/08/31 09:14:23;;;;;;;22.87;16.50;;;17.60;99.90;;;;;;5083864;28;20565;-81
2021/08/31 09:16:58;;;;;;;19.50;15.83;;;17.50;99.90;;;;;;5059595;28;20208;-80
2021/08/31 09:19:43;;;;;;;19.43;15.97;;;17.50;99.90;;;;;;5077194;28;20244;-77
2021/08/31 09:22:20;;;;;;;21.27;15.93;;;17.60;99.90;;;;;;5059152;28;20174;-79
2021/08/31 09:25:01;;;;;;;24.23;17.20;;;17.70;99.90;;;;;;5076798;28;20620;-79
2021/08/31 09:27:36;;;;;;;19.97;15.40;;;17.70;99.90;;;;;;5060200;28;20667;-80
2021/08/31 09:30:18;;;;;;;20.73;15.97;;;17.80;99.90;;;;;;5068714;28;20187;-80
2021/08/31 09:33:07;;;;;;;18.93;15.10;;;17.80;99.90;;;;;;5077326;28;20180;-80
2021/08/31 09:35:34;;;;;;;24.27;13.90;;;17.90;99.90;;;;;;5076448;28;20207;-78
2021/08/31 09:38:28;;;;;;;16.97;13.67;;;17.90;99.90;;;;;;5076876;28;20255;-78
2021/08/31 09:40:53;;;;;;;16.70;14.10;;;17.70;99.50;;;;;;5045202;28;20262;-77
2021/08/31 09:43:25;;;;;;;18.00;12.77;;;17.90;98.90;;;;;;5075817;28;20660;-77
2021/08/31 09:45:54;;;;;;;19.20;13.73;;;18.00;97.70;;;;;;5075259;28;20255;-79
2021/08/31 09:48:21;;;;;;;18.00;12.47;;;18.10;96.80;;;;;;5075055;28;20262;-82
2021/08/31 09:50:58;;;;;;;16.57;11.63;;;18.20;97.20;;;;;;5072628;28;20267;-79
2021/08/31 09:53:25;;;;;;;16.87;11.97;;;18.20;95.90;;;;;;5073925;28;20707;-79
2021/08/31 09:56:05;;;;;;;15.73;11.37;;;18.20;95.60;;;;;;5075314;28;20206;-79
2021/08/31 09:58:41;;;;;;;13.27;9.23;;;18.10;95.10;;;;;;5076339;28;20830;-78
2021/08/31 10:01:07;;;;;;;18.70;10.33;;;18.10;94.50;;;;;;5074545;28;20172;-78
2021/08/31 10:03:33;;;;;;;15.60;8.50;;;18.10;94.30;;;;;;5075386;28;20692;-78
2021/08/31 10:06:01;;;;;;;12.60;10.03;;;18.20;93.50;;;;;;5074048;28;20267;-77
2021/08/31 10:08:32;;;;;;;13.03;9.00;;;18.10;93.20;;;;;;5075503;28;20165;-77
2021/08/31 10:11:01;;;;;;;14.63;9.63;;;18.20;93.10;;;;;;5074446;28;20179;-81
2021/08/31 10:13:27;;;;;;;13.97;9.70;;;18.30;92.50;;;;;;5075164;28;20161;-77
2021/08/31 10:15:57;;;;;;;14.67;9.20;;;18.40;92.70;;;;;;5076271;28;20198;-78
2021/08/31 10:18:26;;;;;;;13.80;9.27;;;18.50;92.60;;;;;;5074278;28;20168;-78
2021/08/31 10:21:13;;;;;;;12.23;9.13;;;18.70;92.40;;;;;;5074075;28;20539;-80
2021/08/31 10:23:46;;;;;;;15.67;9.07;;;18.80;90.90;;;;;;5074419;28;20262;-80
2021/08/31 10:26:31;;;;;;;10.70;8.73;;;19.00;91.30;;;;;;5074057;28;20621;-80
2021/08/31 10:29:16;;;;;;;15.40;9.50;;;19.10;90.50;;;;;;5074342;28;20163;-77
2021/08/31 10:31:53;;;;;;;14.33;10.67;;;19.30;89.80;;;;;;5074087;28;20511;-76
2021/08/31 10:34:31;;;;;;;13.30;9.50;;;19.20;87.90;;;;;;5074141;28;20169;-78
2021/08/31 10:37:16;;;;;;;13.73;9.80;;;19.20;88.70;;;;;;5073886;28;20214;-77
2021/08/31 10:39:54;;;;;;;13.97;9.97;;;19.20;90.10;;;;;;5073914;28;20170;-78
2021/08/31 10:42:28;;;;;;;12.57;9.57;;;19.20;90.00;;;;;;5074421;28;20177;-77
2021/08/31 10:44:58;;;;;;;16.17;9.80;;;19.20;89.00;;;;;;5075084;28;20194;-78
2021/08/31 10:47:31;;;;;;;13.93;10.27;;;19.40;87.70;;;;;;5074745;28;20166;-79
2021/08/31 10:49:57;;;;;;;14.97;10.50;;;19.30;85.40;;;;;;5073980;28;20239;-79
2021/08/31 10:52:43;;;;;;;11.83;10.23;;;19.20;90.00;;;;;;5070523;28;20289;-77
2021/08/31 10:55:18;;;;;;;16.37;10.30;;;19.30;85.80;;;;;;5064546;28;20637;-78
2021/08/31 10:57:45;;;;;;;11.37;9.67;;;19.60;82.80;;;;;;5073571;28;20197;-79
2021/08/31 11:00:16;;;;;;;12.27;9.53;;;19.80;79.80;;;;;;5073653;28;20642;-80
2021/08/31 11:02:48;;;;;;;12.47;9.00;;;19.80;76.00;;;;;;5073907;28;20253;-80
2021/08/31 11:08:00;;;;;;;12.00;9.40;;;20.00;79.70;;;;;;5072982;28;20275;-79
2021/08/31 11:10:40;;;;;;;12.53;9.70;;;20.20;74.90;;;;;;5073125;28;20182;-79
2021/08/31 11:13:10;;;;;;;11.53;9.37;;;20.40;70.10;;;;;;5073155;28;20635;-80
2021/08/31 11:15:37;;;;;;;12.83;9.17;;;20.60;67.70;;;;;;5073116;28;20595;-79
2021/08/31 11:18:17;;;;;;;13.50;9.40;;;20.60;67.40;;;;;;5072465;28;20233;-79
2021/08/31 11:20:47;;;;;;;14.87;8.77;;;20.80;67.30;;;;;;5056170;28;20278;-79
2021/08/31 11:23:22;;;;;;;12.07;8.60;;;20.90;67.70;;;;;;5072887;28;20168;-80
2021/08/31 11:25:51;;;;;;;14.27;9.77;;;21.00;64.30;;;;;;5073416;28;20251;-78
2021/08/31 11:28:23;;;;;;;14.63;8.47;;;21.00;64.00;;;;;;5073346;28;20175;-78
2021/08/31 11:30:57;;;;;;;10.60;8.47;;;21.20;64.00;;;;;;5073259;28;20180;-76
2021/08/31 11:33:35;;;;;;;11.83;8.67;;;21.40;56.20;;;;;;5073083;28;20160;-79
2021/08/31 11:36:04;;;;;;;12.43;9.00;;;21.20;57.50;;;;;;5072631;28;20211;-77
2021/08/31 11:38:48;;;;;;;11.73;7.97;;;21.50;56.70;;;;;;5072593;28;20197;-77
2021/08/31 11:41:21;;;;;;;15.53;7.37;;;21.50;52.70;;;;;;5072942;28;20682;-78
2021/08/31 11:43:49;;;;;;;10.13;7.43;;;21.50;56.20;;;;;;5072597;28;20654;-80
2021/08/31 11:46:20;;;;;;;9.33;7.17;;;21.40;52.70;;;;;;5072631;28;20248;-79
2021/08/31 11:48:45;;;;;;;12.20;8.20;;;21.40;52.40;;;;;;5072474;28;20678;-80
2021/08/31 11:51:11;;;;;;;14.27;8.03;;;21.50;49.40;;;;;;5072556;28;20183;-79
2021/08/31 11:53:37;;;;;;;13.73;7.10;;;21.50;50.20;;;;;;5054583;28;20207;-80
2021/08/31 11:56:05;;;;;;;14.50;7.50;;;21.30;44.80;;;;;;5054319;28;20198;-79
2021/08/31 11:58:40;;;;;;;11.63;7.67;;;21.30;44.10;;;;;;5072510;28;20173;-77
2021/08/31 12:01:05;;;;;;;18.23;8.30;;;21.10;44.80;;;;;;5072669;28;20234;-79
2021/08/31 12:03:31;;;;;;;12.13;6.90;;;21.10;53.10;;;;;;5072344;28;20214;-78
2021/08/31 12:06:12;;;;;;;9.43;7.03;;;21.00;50.10;;;;;;5072401;28;20633;-79
2021/08/31 12:08:45;;;;;;;10.73;7.13;;;21.20;49.80;;;;;;5072210;28;20247;-79
2021/08/31 12:11:12;;;;;;;14.03;6.93;;;21.40;48.50;;;;;;5072174;28;20180;-78
2021/08/31 12:13:42;;;;;;;13.03;6.93;;;21.20;45.30;;;;;;5072515;28;20168;-77
2021/08/31 12:16:11;;;;;;;12.17;6.40;;;21.10;48.00;;;;;;5072489;28;20309;-78
2021/08/31 12:18:37;;;;;;;15.07;7.57;;;21.10;50.00;;;;;;5072624;28;20179;-78
2021/08/31 12:21:14;;;;;;;18.07;7.17;;;21.00;53.90;;;;;;5072968;28;20173;-78
2021/08/31 12:23:41;;;;;;;12.27;6.50;;;21.20;49.70;;;;;;5075878;28;20238;-78
2021/08/31 12:26:06;;;;;;;12.00;7.07;;;21.00;48.80;;;;;;5077559;28;20254;-78
2021/08/31 12:28:32;;;;;;;12.23;7.27;;;21.00;51.50;;;;;;5072700;28;20192;-78
2021/08/31 12:31:10;;;;;;;15.50;7.93;;;20.90;52.60;;;;;;5072154;28;20543;-78
2021/08/31 12:33:36;;;;;;;11.93;7.87;;;20.90;54.00;;;;;;5055281;28;20178;-79